Time;durP1;ratioP1;P1;durP2;ratioP2;P2;SDS_P1;SDS_P2;PMS_P1;PMS_P2;Temp;Humidity;BMP_temperature;BMP_pressure;BME280_temperature;BME280_humidity;BME280_pressure;Samples;Min_cycle;Max_cycle;Signal;HPM_P1;HPM_P2
2023/01/26 00:02:17;;;;;;;19.83;17.83;;;17.80;49.00;;;;;;5115307;28;20206;-54
2023/01/26 00:04:42;;;;;;;20.20;17.52;;;17.80;49.00;;;;;;5115437;28;20172;-54
2023/01/26 00:07:08;;;;;;;19.88;17.88;;;17.80;49.00;;;;;;5115829;28;20205;-56
2023/01/26 00:09:33;;;;;;;21.25;18.15;;;17.80;48.90;;;;;;5114714;28;20264;-53
2023/01/26 00:11:59;;;;;;;21.15;19.05;;;17.70;48.90;;;;;;5115997;28;20263;-55
2023/01/26 00:14:24;;;;;;;20.98;18.50;;;17.70;48.90;;;;;;5115813;28;20212;-55
2023/01/26 00:16:50;;;;;;;21.00;18.80;;;17.70;49.00;;;;;;5114596;28;20312;-56
2023/01/26 00:19:17;;;;;;;21.02;18.05;;;17.60;48.90;;;;;;5115674;28;20293;-56
2023/01/26 00:21:42;;;;;;;20.67;18.48;;;17.70;49.00;;;;;;5114501;28;20256;-56
2023/01/26 00:24:08;;;;;;;20.48;18.33;;;17.60;48.90;;;;;;5115359;28;20172;-52
2023/01/26 00:26:33;;;;;;;21.15;18.90;;;17.60;49.00;;;;;;5115242;28;20206;-56
2023/01/26 00:28:59;;;;;;;20.58;18.48;;;17.60;48.90;;;;;;5115031;28;20207;-53
2023/01/26 00:31:25;;;;;;;21.40;19.08;;;17.60;49.00;;;;;;5115466;28;20176;-53
2023/01/26 00:33:51;;;;;;;21.10;18.90;;;17.60;48.90;;;;;;5114985;28;20183;-53
2023/01/26 00:36:17;;;;;;;21.33;19.02;;;17.50;48.90;;;;;;5096226;28;20177;-56
2023/01/26 00:38:42;;;;;;;20.90;18.70;;;17.50;48.90;;;;;;5114924;28;20226;-54
2023/01/26 00:41:08;;;;;;;20.55;18.42;;;17.50;48.90;;;;;;5115290;28;20230;-55
2023/01/26 00:43:34;;;;;;;20.92;18.75;;;17.50;49.00;;;;;;5114290;28;20169;-56
2023/01/26 00:45:59;;;;;;;21.17;18.98;;;17.40;48.90;;;;;;5115240;28;20562;-56
2023/01/26 00:48:25;;;;;;;21.33;19.10;;;17.50;48.90;;;;;;5115040;28;20596;-56
2023/01/26 00:50:51;;;;;;;21.02;18.83;;;17.40;48.80;;;;;;5113946;28;20309;-54
2023/01/26 00:53:17;;;;;;;21.15;18.95;;;17.40;48.90;;;;;;5114683;28;20224;-50
2023/01/26 00:55:42;;;;;;;19.90;17.85;;;17.40;48.90;;;;;;5114551;28;20653;-53
2023/01/26 00:58:08;;;;;;;20.58;18.38;;;17.40;48.90;;;;;;5114225;28;20199;-52
2023/01/26 01:00:35;;;;;;;20.85;18.67;;;17.30;48.80;;;;;;5114370;28;20256;-56
2023/01/26 01:03:00;;;;;;;21.48;18.33;;;17.30;48.90;;;;;;5114865;28;20180;-52
2023/01/26 01:05:27;;;;;;;20.52;18.30;;;17.30;48.80;;;;;;5113958;28;20177;-51
2023/01/26 01:07:53;;;;;;;21.15;18.95;;;17.30;48.90;;;;;;5114145;28;20217;-56
2023/01/26 01:10:18;;;;;;;20.75;18.55;;;17.30;48.90;;;;;;5114777;28;20173;-56
2023/01/26 01:12:44;;;;;;;19.95;17.85;;;17.30;48.90;;;;;;5113626;28;20276;-55
2023/01/26 01:15:09;;;;;;;21.08;18.95;;;17.30;48.80;;;;;;5114374;28;20670;-56
2023/01/26 01:17:36;;;;;;;20.17;18.08;;;17.30;48.90;;;;;;5114051;28;20311;-56
2023/01/26 01:20:02;;;;;;;21.65;19.35;;;17.20;48.80;;;;;;5113691;28;20177;-56
2023/01/26 01:22:28;;;;;;;20.23;18.20;;;17.20;48.80;;;;;;5114577;28;20274;-54
2023/01/26 01:24:53;;;;;;;19.30;17.23;;;17.20;48.80;;;;;;5113479;28;20173;-53
2023/01/26 01:27:19;;;;;;;21.35;18.92;;;17.20;48.90;;;;;;5114137;28;20208;-49
2023/01/26 01:29:44;;;;;;;20.25;18.15;;;17.20;48.90;;;;;;5114036;28;20262;-54
2023/01/26 01:32:10;;;;;;;20.80;18.52;;;17.10;48.80;;;;;;5113652;28;20172;-53
2023/01/26 01:34:35;;;;;;;20.75;18.55;;;17.10;48.80;;;;;;5113673;28;20169;-56
2023/01/26 01:37:01;;;;;;;21.05;18.88;;;17.10;48.80;;;;;;5114134;28;20590;-55
2023/01/26 01:39:26;;;;;;;19.17;17.17;;;17.10;48.80;;;;;;5113161;28;20771;-53
2023/01/26 01:41:52;;;;;;;20.15;17.95;;;17.10;48.80;;;;;;5113886;28;20190;-55
2023/01/26 01:44:19;;;;;;;20.55;18.35;;;17.10;48.80;;;;;;5114059;28;20185;-56
2023/01/26 01:46:57;;;;;;;19.67;17.58;;;17.10;48.80;;;;;;5112861;28;20197;-55
2023/01/26 01:49:23;;;;;;;20.00;18.00;;;17.00;48.80;;;;;;5113855;28;20253;-55
2023/01/26 01:52:02;;;;;;;19.33;17.33;;;17.10;48.80;;;;;;5113145;28;20193;-53
2023/01/26 01:54:39;;;;;;;20.27;18.17;;;17.10;48.80;;;;;;5095236;28;20177;-54
2023/01/26 01:57:14;;;;;;;19.48;17.42;;;17.00;48.80;;;;;;5097201;28;20180;-54
2023/01/26 01:59:40;;;;;;;20.15;18.05;;;17.00;48.80;;;;;;5080764;28;20183;-56
2023/01/26 02:02:05;;;;;;;19.08;17.08;;;17.00;48.80;;;;;;5094762;28;20180;-56
2023/01/26 02:04:31;;;;;;;19.63;17.58;;;17.00;48.80;;;;;;5113552;28;20169;-57
2023/01/26 02:06:57;;;;;;;19.65;17.65;;;17.00;48.80;;;;;;5113085;28;20213;-56
2023/01/26 02:12:12;;;;;;;19.77;17.70;;;16.90;48.80;;;;;;5098070;28;20167;-56
2023/01/26 02:14:38;;;;;;;20.23;18.08;;;16.90;48.80;;;;;;5077465;28;20187;-57
2023/01/26 02:17:03;;;;;;;19.45;17.48;;;16.90;48.80;;;;;;5113430;28;20250;-56
2023/01/26 02:19:41;;;;;;;19.83;17.30;;;16.90;48.80;;;;;;5113365;28;20181;-55
2023/01/26 02:22:09;;;;;;;18.83;16.90;;;16.90;48.80;;;;;;5096042;28;20176;-54
2023/01/26 02:24:35;;;;;;;19.35;17.33;;;16.90;48.80;;;;;;5095372;28;20529;-55
2023/01/26 02:27:01;;;;;;;18.38;16.48;;;16.90;48.80;;;;;;5095454;28;20205;-57
2023/01/26 02:29:26;;;;;;;18.08;16.20;;;16.90;48.80;;;;;;5077939;28;20177;-59
2023/01/26 02:31:55;;;;;;;18.73;16.80;;;16.80;48.80;;;;;;5095080;28;20173;-53
2023/01/26 02:34:20;;;;;;;18.83;16.85;;;16.80;49.00;;;;;;5079167;28;20233;-56
2023/01/26 02:36:56;;;;;;;19.05;17.15;;;16.80;48.80;;;;;;5112222;28;20165;-56
2023/01/26 02:39:45;;;;;;;18.42;16.58;;;16.80;48.70;;;;;;5113252;28;20173;-56
2023/01/26 02:44:54;;;;;;;17.73;15.93;;;16.80;48.80;;;;;;5097684;28;20233;-56
2023/01/26 02:47:20;;;;;;;18.70;16.80;;;16.80;48.80;;;;;;5113146;28;20694;-56
2023/01/26 02:49:45;;;;;;;17.85;15.85;;;16.70;48.70;;;;;;5112032;28;20172;-56
2023/01/26 02:52:11;;;;;;;17.90;16.00;;;16.70;48.80;;;;;;5112905;28;20221;-56
2023/01/26 02:57:21;;;;;;;18.52;16.63;;;16.70;48.80;;;;;;5112438;28;20218;-55
2023/01/26 02:59:46;;;;;;;17.48;15.68;;;16.70;48.80;;;;;;5112822;28;20170;-55
2023/01/26 03:02:21;;;;;;;17.92;16.13;;;16.70;48.80;;;;;;5112871;28;20518;-53
2023/01/26 03:04:46;;;;;;;17.95;16.05;;;16.70;48.80;;;;;;5111696;28;20193;-53
2023/01/26 03:07:12;;;;;;;17.02;15.32;;;16.70;48.90;;;;;;5113046;28;20233;-50
2023/01/26 03:09:38;;;;;;;17.67;15.68;;;16.70;48.90;;;;;;5112805;28;20595;-55
2023/01/26 03:12:03;;;;;;;16.88;15.18;;;16.70;48.90;;;;;;5112278;28;20181;-49
2023/01/26 03:14:29;;;;;;;17.25;15.57;;;16.70;48.90;;;;;;5113000;28;20220;-49
2023/01/26 03:16:54;;;;;;;16.92;15.32;;;16.60;48.90;;;;;;5112432;28;20233;-52
2023/01/26 03:27:37;;;;;;;15.80;14.30;;;16.60;48.80;;;;;;5116333;28;20210;-56
2023/01/26 03:30:02;;;;;;;15.75;14.27;;;16.60;48.90;;;;;;5116796;28;20247;-54
2023/01/26 03:32:28;;;;;;;15.88;14.35;;;16.60;48.80;;;;;;5115653;28;20617;-53
2023/01/26 03:34:53;;;;;;;15.77;14.27;;;16.60;48.90;;;;;;5116195;28;20176;-53
2023/01/26 03:37:21;;;;;;;15.80;14.20;;;16.50;48.80;;;;;;5116374;28;20223;-55
2023/01/26 03:56:17;;;;;;;14.50;13.05;;;16.40;48.80;;;;;;5116275;28;20222;-55
2023/01/26 03:58:43;;;;;;;16.48;14.77;;;16.50;48.90;;;;;;5115489;28;20173;-56
2023/01/26 04:01:09;;;;;;;15.20;13.68;;;16.40;48.80;;;;;;5115397;28;20177;-54
2023/01/26 04:09:04;;;;;;;14.10;12.77;;;16.40;48.80;;;;;;5115837;28;20652;-54
2023/01/26 04:11:29;;;;;;;13.90;12.60;;;16.40;48.80;;;;;;5115701;28;20169;-54
2023/01/26 04:22:07;;;;;;;13.77;12.48;;;16.40;48.90;;;;;;5114950;28;20175;-56
2023/01/26 04:24:32;;;;;;;12.88;11.60;;;16.40;48.80;;;;;;5115062;28;20177;-55
2023/01/26 04:26:58;;;;;;;14.13;12.73;;;16.30;48.80;;;;;;5115141;28;20203;-55
2023/01/26 04:29:23;;;;;;;12.60;11.40;;;16.30;48.90;;;;;;5113963;28;20184;-55
2023/01/26 04:31:49;;;;;;;13.75;12.38;;;16.30;48.80;;;;;;5115103;28;20200;-56
2023/01/26 04:34:14;;;;;;;13.95;12.55;;;16.30;48.80;;;;;;5115224;28;20208;-56
2023/01/26 04:36:40;;;;;;;13.10;11.88;;;16.30;49.00;;;;;;5114227;28;20173;-65
2023/01/26 04:39:06;;;;;;;12.68;11.40;;;16.30;48.90;;;;;;5115407;28;20176;-57
2023/01/26 04:41:31;;;;;;;12.95;11.75;;;16.30;49.00;;;;;;5114909;28;20180;-55
2023/01/26 04:43:57;;;;;;;12.18;11.07;;;16.30;49.00;;;;;;5114177;28;20581;-56
2023/01/26 04:46:22;;;;;;;12.25;11.15;;;16.30;48.90;;;;;;5114944;28;20173;-56
2023/01/26 04:48:48;;;;;;;12.05;10.85;;;16.20;48.90;;;;;;5114286;28;20655;-56
2023/01/26 04:51:16;;;;;;;11.93;10.73;;;16.20;48.90;;;;;;5114781;28;20252;-56
2023/01/26 04:53:41;;;;;;;12.55;11.25;;;16.20;49.10;;;;;;5114749;28;20181;-55
2023/01/26 04:56:10;;;;;;;11.45;10.35;;;16.20;49.00;;;;;;5114110;28;20581;-56
2023/01/26 04:58:35;;;;;;;11.57;10.57;;;16.20;49.00;;;;;;5114600;28;20181;-54
2023/01/26 05:01:01;;;;;;;10.82;9.82;;;16.20;49.60;;;;;;5114930;28;20517;-55
2023/01/26 05:03:26;;;;;;;11.15;10.15;;;16.20;49.00;;;;;;5113898;28;20779;-56
2023/01/26 05:05:53;;;;;;;11.48;10.38;;;16.20;49.00;;;;;;5114226;28;20165;-55
2023/01/26 05:08:19;;;;;;;11.57;10.48;;;16.20;49.10;;;;;;5114748;28;20217;-52
2023/01/26 05:10:44;;;;;;;12.48;11.38;;;16.20;49.00;;;;;;5113636;28;20177;-55
2023/01/26 05:13:10;;;;;;;11.85;10.85;;;16.20;49.10;;;;;;5114553;28;20538;-56
2023/01/26 05:15:36;;;;;;;11.77;10.68;;;16.10;49.00;;;;;;5114280;28;20173;-54
2023/01/26 05:18:01;;;;;;;10.85;9.85;;;16.10;49.10;;;;;;5113557;28;20232;-54
2023/01/26 05:20:27;;;;;;;11.25;10.25;;;16.10;49.10;;;;;;5114664;28;20176;-54
2023/01/26 05:22:52;;;;;;;10.27;9.38;;;16.10;49.10;;;;;;5114248;28;20582;-55
2023/01/26 05:25:18;;;;;;;10.48;9.57;;;16.10;49.10;;;;;;5113752;28;20521;-55
2023/01/26 05:27:44;;;;;;;10.45;9.45;;;16.10;49.10;;;;;;5114067;28;20244;-55
2023/01/26 05:30:10;;;;;;;10.85;9.85;;;16.10;49.10;;;;;;5114244;28;20161;-56
2023/01/26 05:32:35;;;;;;;10.30;9.38;;;16.10;49.10;;;;;;5112544;28;20209;-55
2023/01/26 05:35:01;;;;;;;10.45;9.45;;;16.10;49.20;;;;;;5114067;28;20222;-53
2023/01/26 05:37:27;;;;;;;10.45;9.55;;;16.10;49.20;;;;;;5114262;28;20185;-55
2023/01/26 05:39:52;;;;;;;9.65;8.75;;;16.00;49.10;;;;;;5112463;28;20176;-57
2023/01/26 05:42:18;;;;;;;10.55;9.63;;;16.10;49.20;;;;;;5113850;28;20169;-56
2023/01/26 05:44:44;;;;;;;10.60;9.68;;;16.00;49.10;;;;;;5113636;28;20181;-55
2023/01/26 05:47:09;;;;;;;9.35;8.55;;;16.00;49.70;;;;;;5112964;28;20291;-52
2023/01/26 05:49:37;;;;;;;9.85;8.95;;;16.00;49.10;;;;;;5113718;28;20161;-55
2023/01/26 05:52:07;;;;;;;9.60;8.70;;;16.00;49.20;;;;;;5113952;28;20256;-53
2023/01/26 05:54:32;;;;;;;9.73;8.82;;;16.00;49.20;;;;;;5096056;28;20177;-55
2023/01/26 05:56:58;;;;;;;9.55;8.75;;;16.00;49.20;;;;;;5114532;28;20166;-53
2023/01/26 05:59:23;;;;;;;10.13;9.23;;;16.00;49.20;;;;;;5113706;28;20172;-50
2023/01/26 06:01:49;;;;;;;9.60;8.77;;;16.00;49.10;;;;;;5114188;28;20610;-55
2023/01/26 06:04:14;;;;;;;8.48;7.72;;;16.00;49.20;;;;;;5114344;28;20173;-56
2023/01/26 06:06:40;;;;;;;9.02;8.23;;;15.90;49.20;;;;;;5112757;28;20193;-56
2023/01/26 06:09:06;;;;;;;9.50;8.68;;;16.00;49.20;;;;;;5113714;28;20303;-55
2023/01/26 06:11:32;;;;;;;9.65;8.75;;;15.90;49.20;;;;;;5113279;28;20173;-55
2023/01/26 06:14:00;;;;;;;9.05;8.25;;;16.00;49.20;;;;;;5112985;28;20181;-53
2023/01/26 06:16:26;;;;;;;8.55;7.85;;;15.90;49.20;;;;;;5113147;28;20220;-56
2023/01/26 06:18:51;;;;;;;8.73;7.93;;;15.90;49.20;;;;;;5113934;28;20181;-55
2023/01/26 06:21:17;;;;;;;8.27;7.57;;;15.90;49.30;;;;;;5112663;28;20173;-51
2023/01/26 06:23:42;;;;;;;8.88;8.02;;;15.90;49.30;;;;;;5113697;28;20178;-55
2023/01/26 06:26:08;;;;;;;8.98;8.18;;;15.90;49.30;;;;;;5113693;28;20169;-54
2023/01/26 06:28:34;;;;;;;8.63;7.93;;;15.90;49.30;;;;;;5112230;28;20235;-51
2023/01/26 06:31:04;;;;;;;8.50;7.80;;;15.90;49.30;;;;;;5113530;28;20177;-55
2023/01/26 06:33:34;;;;;;;8.38;7.68;;;15.80;49.20;;;;;;5113208;28;20177;-56
2023/01/26 06:36:03;;;;;;;8.23;7.53;;;15.80;49.20;;;;;;5112868;28;20216;-56
2023/01/26 06:38:29;;;;;;;8.57;7.78;;;15.80;49.20;;;;;;5113176;28;20180;-57
2023/01/26 06:40:59;;;;;;;9.30;8.40;;;15.80;49.20;;;;;;5113093;28;20169;-56
2023/01/26 06:43:24;;;;;;;7.82;7.13;;;15.80;49.30;;;;;;5112289;28;20644;-55
2023/01/26 06:45:50;;;;;;;8.70;7.93;;;15.80;49.30;;;;;;5113238;28;20256;-56
2023/01/26 06:48:15;;;;;;;7.95;7.30;;;15.80;49.30;;;;;;5113334;28;20346;-50
2023/01/26 06:50:41;;;;;;;8.43;7.63;;;15.80;49.30;;;;;;5112008;28;20298;-55
2023/01/26 06:53:33;;;;;;;8.25;7.55;;;15.80;49.30;;;;;;5081905;28;20220;-55
2023/01/26 06:55:59;;;;;;;7.97;7.18;;;15.80;49.40;;;;;;5116717;28;20176;-51
2023/01/26 06:58:24;;;;;;;8.20;7.50;;;15.80;49.40;;;;;;5117005;28;20177;-50
2023/01/26 07:00:50;;;;;;;8.15;7.45;;;15.80;49.40;;;;;;5117496;28;20172;-53
2023/01/26 07:03:15;;;;;;;7.63;6.93;;;15.80;49.40;;;;;;5116483;28;20580;-52
2023/01/26 07:05:41;;;;;;;7.30;6.70;;;15.80;49.30;;;;;;5117003;28;20165;-51
2023/01/26 07:08:07;;;;;;;7.57;6.85;;;15.90;49.30;;;;;;5117000;28;20208;-56
2023/01/26 07:10:34;;;;;;;6.93;6.32;;;16.00;49.50;;;;;;5115898;28;20525;-56
2023/01/26 07:12:59;;;;;;;6.82;6.13;;;16.00;49.50;;;;;;5117128;28;20169;-53
2023/01/26 07:15:25;;;;;;;6.78;6.18;;;16.10;49.40;;;;;;5116645;28;20172;-52
2023/01/26 07:17:50;;;;;;;6.78;6.18;;;16.20;49.40;;;;;;5115904;28;20229;-51
2023/01/26 07:20:16;;;;;;;6.10;5.55;;;16.30;49.30;;;;;;5117358;28;20172;-56
2023/01/26 07:22:41;;;;;;;6.07;5.57;;;16.40;49.10;;;;;;5116734;28;20177;-55
2023/01/26 07:25:07;;;;;;;6.25;5.75;;;16.50;48.90;;;;;;5115984;28;20263;-55
2023/01/26 07:27:32;;;;;;;6.55;5.95;;;16.60;48.60;;;;;;5116460;28;20299;-56
2023/01/26 07:29:58;;;;;;;5.65;5.22;;;16.70;48.50;;;;;;5116630;28;20218;-54
2023/01/26 07:32:23;;;;;;;6.00;5.50;;;16.80;48.40;;;;;;5115694;28;20222;-51
2023/01/26 07:34:49;;;;;;;6.07;5.57;;;16.80;48.30;;;;;;5116573;28;20178;-52
2023/01/26 07:37:15;;;;;;;5.68;5.20;;;16.90;48.30;;;;;;5116440;28;20697;-56
2023/01/26 07:39:40;;;;;;;6.15;5.60;;;16.90;48.20;;;;;;5115266;28;20173;-54
2023/01/26 07:42:06;;;;;;;5.95;5.45;;;16.90;48.10;;;;;;5116487;28;20208;-55
2023/01/26 07:44:31;;;;;;;5.88;5.35;;;17.00;48.10;;;;;;5116141;28;20507;-69
2023/01/26 07:46:57;;;;;;;5.97;5.38;;;17.00;48.10;;;;;;5116545;28;20204;-69
2023/01/26 07:49:22;;;;;;;5.53;5.13;;;17.10;48.20;;;;;;5115715;28;20173;-63
2023/01/26 07:51:48;;;;;;;5.60;5.10;;;17.10;48.10;;;;;;5115216;28;20172;-64
2023/01/26 07:54:13;;;;;;;5.65;5.15;;;17.10;48.20;;;;;;5116042;28;20256;-68
2023/01/26 07:56:39;;;;;;;5.78;5.28;;;17.20;48.20;;;;;;5115962;28;20161;-66
2023/01/26 07:59:04;;;;;;;5.15;4.65;;;17.20;48.40;;;;;;5115315;28;20202;-64
2023/01/26 08:01:30;;;;;;;6.05;5.45;;;17.20;48.50;;;;;;5115685;28;20176;-64
2023/01/26 08:03:55;;;;;;;5.38;4.88;;;17.30;48.60;;;;;;5115011;28;20188;-64
2023/01/26 08:06:21;;;;;;;6.13;5.53;;;17.30;48.60;;;;;;5114871;28;20169;-64
2023/01/26 08:08:50;;;;;;;5.90;5.30;;;17.30;48.60;;;;;;5115276;28;20189;-64
2023/01/26 08:11:16;;;;;;;5.50;5.00;;;17.20;48.60;;;;;;5113083;28;20176;-63
2023/01/26 08:13:41;;;;;;;5.75;5.15;;;17.10;48.70;;;;;;5114461;28;20169;-63
2023/01/26 08:16:11;;;;;;;5.28;4.80;;;17.10;48.90;;;;;;5115229;28;20169;-63
2023/01/26 08:18:41;;;;;;;5.85;4.93;;;17.00;49.00;;;;;;5113118;28;20208;-63
2023/01/26 08:21:06;;;;;;;5.40;4.90;;;17.00;49.20;;;;;;5114928;28;20169;-63
2023/01/26 08:23:32;;;;;;;5.53;5.03;;;17.00;49.10;;;;;;5115309;28;20195;-63
2023/01/26 08:26:01;;;;;;;5.18;4.72;;;17.00;49.10;;;;;;5115725;28;20650;-63
2023/01/26 08:28:27;;;;;;;6.55;5.18;;;17.00;49.10;;;;;;5114625;28;20265;-64
2023/01/26 08:30:52;;;;;;;5.05;4.60;;;17.10;49.20;;;;;;5115403;28;20169;-64
2023/01/26 08:33:18;;;;;;;5.53;5.10;;;17.10;49.20;;;;;;5114555;28;20256;-64
2023/01/26 08:35:43;;;;;;;5.20;4.80;;;17.10;49.20;;;;;;5114031;28;20290;-63
2023/01/26 08:38:09;;;;;;;5.38;4.88;;;17.20;49.20;;;;;;5114741;28;20214;-75
2023/01/26 08:40:34;;;;;;;5.00;4.40;;;17.20;49.40;;;;;;5114684;28;20180;-78
2023/01/26 08:43:01;;;;;;;5.72;4.70;;;17.10;49.30;;;;;;5114035;28;20643;-74
2023/01/26 08:45:26;;;;;;;5.72;5.20;;;17.00;49.20;;;;;;5114750;28;20185;-74
2023/01/26 08:47:52;;;;;;;5.72;5.20;;;16.90;49.20;;;;;;5114896;28;20209;-77
2023/01/26 08:50:17;;;;;;;9.70;5.32;;;16.80;49.30;;;;;;5113919;28;20226;-76
2023/01/26 08:52:43;;;;;;;6.10;5.28;;;16.80;49.50;;;;;;5115075;28;20646;-81
2023/01/26 08:55:09;;;;;;;5.65;5.15;;;16.80;49.60;;;;;;5114191;28;20219;-63
2023/01/26 08:57:34;;;;;;;6.10;5.50;;;16.80;49.70;;;;;;5113106;28;20177;-63
2023/01/26 09:00:00;;;;;;;5.75;5.20;;;16.90;49.70;;;;;;5114547;28;20165;-63
2023/01/26 09:02:25;;;;;;;5.60;5.10;;;16.90;49.60;;;;;;5113857;28;20222;-64
2023/01/26 09:04:51;;;;;;;5.30;4.80;;;16.90;49.50;;;;;;5114730;28;20175;-64
2023/01/26 09:07:17;;;;;;;5.15;4.63;;;17.00;49.40;;;;;;5114343;28;20296;-64
2023/01/26 09:09:45;;;;;;;4.75;4.35;;;17.00;49.20;;;;;;5113994;28;20173;-64
2023/01/26 09:12:10;;;;;;;5.07;4.57;;;17.10;49.20;;;;;;5114652;28;20169;-64
2023/01/26 09:14:36;;;;;;;6.35;4.53;;;17.10;49.20;;;;;;5114304;28;20177;-64
2023/01/26 09:17:01;;;;;;;5.72;5.10;;;17.10;49.00;;;;;;5113741;28;20225;-64
2023/01/26 09:19:27;;;;;;;4.90;4.38;;;17.00;49.00;;;;;;5114419;28;20173;-63
2023/01/26 09:21:53;;;;;;;5.63;5.13;;;17.00;49.00;;;;;;5114440;28;20165;-63
2023/01/26 09:24:19;;;;;;;5.57;5.10;;;17.00;49.00;;;;;;5113302;28;20533;-64
2023/01/26 09:26:45;;;;;;;6.15;5.55;;;16.90;49.10;;;;;;5114441;28;20189;-63
2023/01/26 09:29:10;;;;;;;5.28;4.78;;;16.90;49.10;;;;;;5114485;28;20177;-64
2023/01/26 09:31:36;;;;;;;6.32;5.10;;;16.90;49.10;;;;;;5113282;28;20176;-64
2023/01/26 09:34:01;;;;;;;5.20;4.70;;;16.90;49.10;;;;;;5114334;28;20169;-63
2023/01/26 09:36:27;;;;;;;5.95;4.65;;;16.90;49.10;;;;;;5113790;28;20169;-64
2023/01/26 09:38:53;;;;;;;4.78;4.20;;;17.00;49.10;;;;;;5113639;28;20536;-64
2023/01/26 09:41:46;;;;;;;4.90;4.47;;;17.00;49.00;;;;;;5114031;28;20639;-64
2023/01/26 09:44:19;;;;;;;5.20;4.55;;;17.00;49.00;;;;;;5095754;28;20177;-64
2023/01/26 09:46:48;;;;;;;5.68;4.57;;;17.10;49.00;;;;;;5095935;28;20225;-64
2023/01/26 09:49:18;;;;;;;5.82;4.80;;;17.10;48.90;;;;;;5095955;28;20177;-64
2023/01/26 09:51:47;;;;;;;5.45;4.95;;;17.10;48.80;;;;;;5094957;28;20165;-64
2023/01/26 09:54:44;;;;;;;4.90;4.40;;;17.00;48.80;;;;;;5095935;28;20177;-64
2023/01/26 09:57:40;;;;;;;5.20;4.65;;;17.00;48.90;;;;;;5057604;28;20238;-64
2023/01/26 10:00:15;;;;;;;5.13;4.65;;;16.90;48.90;;;;;;5107888;28;20636;-64
2023/01/26 10:02:44;;;;;;;5.28;4.78;;;16.90;49.00;;;;;;5113556;28;20169;-64
2023/01/26 10:05:19;;;;;;;5.35;4.78;;;16.90;49.10;;;;;;5113784;28;20169;-65
2023/01/26 10:07:45;;;;;;;5.53;4.90;;;16.90;49.00;;;;;;5079400;28;20249;-64
2023/01/26 10:10:23;;;;;;;4.90;4.47;;;17.00;49.10;;;;;;5095481;28;20750;-64
2023/01/26 10:12:50;;;;;;;5.43;4.93;;;17.00;49.00;;;;;;5096221;28;20177;-64
2023/01/26 10:15:31;;;;;;;5.60;4.72;;;17.00;49.00;;;;;;5113596;28;20255;-64
2023/01/26 10:17:59;;;;;;;4.50;4.10;;;17.10;49.00;;;;;;5078925;28;20267;-65
2023/01/26 10:20:31;;;;;;;5.32;4.65;;;17.10;49.00;;;;;;5094514;28;20257;-64
2023/01/26 10:23:05;;;;;;;4.93;4.47;;;17.10;48.90;;;;;;5078872;28;20181;-64
2023/01/26 10:25:38;;;;;;;4.70;4.30;;;17.10;48.90;;;;;;5096219;28;20233;-64
2023/01/26 10:28:17;;;;;;;4.75;4.25;;;17.10;48.90;;;;;;5112135;28;20574;-64
2023/01/26 10:30:43;;;;;;;4.90;4.40;;;17.00;48.90;;;;;;5113411;28;20651;-64
2023/01/26 10:33:22;;;;;;;4.70;4.30;;;17.00;49.00;;;;;;5113373;28;20333;-64
2023/01/26 10:35:48;;;;;;;4.50;4.10;;;17.00;49.10;;;;;;5079108;28;20181;-64
2023/01/26 10:38:32;;;;;;;4.22;3.83;;;17.00;49.10;;;;;;5113459;28;20164;-64
2023/01/26 10:41:02;;;;;;;4.65;4.25;;;17.00;49.10;;;;;;5112443;28;20669;-64
2023/01/26 10:43:28;;;;;;;4.50;3.97;;;17.10;49.00;;;;;;5113148;28;20181;-63
2023/01/26 10:45:53;;;;;;;4.47;4.07;;;17.20;49.00;;;;;;5078452;28;20181;-64
2023/01/26 10:48:23;;;;;;;4.18;3.78;;;17.20;49.00;;;;;;5112290;28;20220;-64
2023/01/26 10:50:49;;;;;;;4.18;3.78;;;17.20;48.90;;;;;;5113213;28;20200;-64
2023/01/26 10:53:19;;;;;;;4.40;4.00;;;17.20;48.90;;;;;;5113126;28;20639;-64
2023/01/26 10:56:00;;;;;;;4.72;4.10;;;17.20;48.80;;;;;;5094564;28;20169;-63
2023/01/26 10:58:48;;;;;;;4.50;4.10;;;17.20;48.90;;;;;;5113128;28;20169;-64
2023/01/26 11:01:17;;;;;;;4.60;4.20;;;17.10;49.00;;;;;;5113428;28;20193;-64
2023/01/26 11:04:05;;;;;;;4.28;3.88;;;17.10;49.00;;;;;;5094226;28;20646;-64
2023/01/26 11:06:31;;;;;;;5.15;4.10;;;17.10;49.20;;;;;;5112813;28;20185;-65
2023/01/26 11:09:26;;;;;;;4.60;4.10;;;17.10;49.20;;;;;;5112241;28;20180;-64
2023/01/26 11:11:59;;;;;;;4.78;3.97;;;17.10;49.20;;;;;;5110777;28;20193;-65
2023/01/26 11:14:25;;;;;;;4.20;3.80;;;17.20;49.20;;;;;;5112691;28;20220;-65
2023/01/26 11:17:20;;;;;;;3.55;3.25;;;17.20;49.20;;;;;;5112201;28;20732;-64
2023/01/26 11:20:07;;;;;;;4.35;3.80;;;17.20;49.10;;;;;;5094835;28;20208;-64
2023/01/26 11:22:52;;;;;;;4.45;3.65;;;17.20;49.10;;;;;;5094857;28;20716;-64
2023/01/26 11:25:22;;;;;;;5.10;4.03;;;17.10;49.10;;;;;;5112750;28;20185;-64
2023/01/26 11:28:00;;;;;;;4.38;3.83;;;17.10;49.20;;;;;;5094461;28;20208;-64
2023/01/26 11:30:53;;;;;;;5.70;3.80;;;17.10;49.20;;;;;;5111898;28;20180;-66
2023/01/26 11:33:21;;;;;;;4.70;4.20;;;17.10;49.30;;;;;;5095174;28;20177;-65
2023/01/26 11:35:49;;;;;;;4.47;4.07;;;17.10;49.30;;;;;;5112834;28;20181;-64
2023/01/26 11:38:26;;;;;;;4.18;3.75;;;17.10;49.30;;;;;;5112454;28;20263;-64
2023/01/26 11:41:26;;;;;;;4.10;3.70;;;17.20;49.30;;;;;;5116480;28;20229;-64
2023/01/26 11:44:06;;;;;;;4.43;3.33;;;17.20;49.20;;;;;;5097639;28;20251;-64
2023/01/26 11:46:32;;;;;;;5.68;4.10;;;17.20;49.20;;;;;;5099430;28;20178;-65
2023/01/26 11:49:15;;;;;;;4.28;3.45;;;17.20;49.20;;;;;;5116356;28;20181;-64
2023/01/26 11:52:08;;;;;;;5.78;4.32;;;17.20;49.20;;;;;;5115155;28;20169;-65
2023/01/26 11:55:01;;;;;;;3.83;3.45;;;17.20;49.30;;;;;;5100632;28;20174;-64
2023/01/26 11:57:32;;;;;;;3.70;3.38;;;17.20;49.40;;;;;;5115650;28;20624;-64
2023/01/26 12:00:01;;;;;;;4.55;3.83;;;17.20;49.50;;;;;;5097131;28;20180;-65
2023/01/26 12:02:31;;;;;;;3.85;3.50;;;17.20;49.50;;;;;;5079488;28;20173;-64
2023/01/26 12:05:04;;;;;;;4.03;3.63;;;17.20;49.50;;;;;;5115770;28;20210;-65
2023/01/26 12:07:55;;;;;;;4.95;3.70;;;17.30;49.60;;;;;;5097624;28;20209;-64
2023/01/26 12:10:31;;;;;;;4.60;3.70;;;17.30;49.80;;;;;;5115773;28;20254;-64
2023/01/26 12:13:13;;;;;;;5.55;3.70;;;17.40;49.80;;;;;;5115326;28;20181;-64
2023/01/26 12:15:39;;;;;;;4.10;3.67;;;17.30;49.80;;;;;;5098584;28;20165;-64
2023/01/26 12:18:14;;;;;;;4.80;3.47;;;17.30;49.90;;;;;;5077172;28;20722;-63
2023/01/26 12:20:59;;;;;;;4.80;3.30;;;17.30;50.00;;;;;;5093157;28;20192;-63
2023/01/26 12:23:47;;;;;;;6.15;3.65;;;17.30;50.10;;;;;;5093589;28;20546;-63
2023/01/26 12:26:14;;;;;;;3.72;3.42;;;17.30;50.20;;;;;;5093237;28;20628;-62
2023/01/26 12:28:49;;;;;;;4.88;3.40;;;17.30;50.20;;;;;;5077083;28;20259;-63
2023/01/26 12:31:22;;;;;;;5.00;3.35;;;17.30;50.20;;;;;;5093966;28;20256;-72
2023/01/26 12:33:48;;;;;;;6.10;3.05;;;17.30;50.30;;;;;;5093265;28;20182;-72
2023/01/26 12:36:32;;;;;;;6.30;3.15;;;17.30;50.40;;;;;;5076825;28;20170;-72
2023/01/26 12:39:07;;;;;;;4.28;3.55;;;17.30;50.40;;;;;;5094833;28;20647;-74
2023/01/26 12:41:56;;;;;;;4.35;2.85;;;17.30;50.50;;;;;;5096188;28;20223;-72
2023/01/26 12:44:40;;;;;;;5.78;3.33;;;17.20;50.70;;;;;;5094397;28;20659;-72
2023/01/26 12:47:31;;;;;;;3.83;3.00;;;17.10;50.80;;;;;;5094171;28;20210;-71
2023/01/26 12:50:08;;;;;;;4.32;3.35;;;17.10;51.00;;;;;;5093129;28;20663;-64
2023/01/26 12:52:44;;;;;;;5.57;3.08;;;17.00;51.10;;;;;;5093437;28;20204;-64
2023/01/26 12:55:16;;;;;;;3.85;3.13;;;17.00;51.10;;;;;;5092873;28;20584;-64
2023/01/26 12:57:46;;;;;;;5.80;3.38;;;17.00;51.20;;;;;;5094511;28;20178;-64
2023/01/26 13:00:33;;;;;;;5.13;3.20;;;16.90;51.20;;;;;;5094662;28;20199;-63
2023/01/26 13:03:23;;;;;;;5.35;3.55;;;17.10;51.10;;;;;;5092579;28;20516;-64
2023/01/26 13:06:00;;;;;;;4.22;2.88;;;17.10;51.10;;;;;;5093591;28;20209;-65
2023/01/26 13:08:31;;;;;;;4.68;2.92;;;17.00;51.20;;;;;;5093489;28;20257;-66
2023/01/26 13:11:09;;;;;;;4.85;3.30;;;16.90;51.20;;;;;;5094316;28;20174;-66
2023/01/26 13:13:55;;;;;;;6.53;3.20;;;16.90;51.30;;;;;;5093180;28;20231;-71
2023/01/26 13:16:23;;;;;;;9.02;3.38;;;16.90;51.30;;;;;;5095219;28;20181;-70
2023/01/26 13:18:52;;;;;;;7.93;3.50;;;16.80;51.40;;;;;;5114578;28;20264;-62
2023/01/26 13:21:36;;;;;;;4.30;3.17;;;16.80;51.70;;;;;;5114304;28;20172;-62
2023/01/26 13:24:14;;;;;;;5.13;2.97;;;16.90;51.60;;;;;;5113854;28;20173;-63
2023/01/26 13:26:44;;;;;;;4.38;2.97;;;16.90;51.50;;;;;;5098039;28;20165;-63
2023/01/26 13:29:26;;;;;;;4.88;3.40;;;17.00;51.30;;;;;;5114562;28;20573;-65
2023/01/26 13:31:53;;;;;;;3.17;2.83;;;16.90;51.50;;;;;;5114164;28;20647;-63
2023/01/26 13:34:21;;;;;;;5.38;3.17;;;16.90;51.40;;;;;;5095973;28;20205;-63
2023/01/26 13:36:46;;;;;;;4.05;2.72;;;16.80;51.40;;;;;;5078606;28;20178;-63